Time;durP1;ratioP1;P1;durP2;ratioP2;P2;SDS_P1;SDS_P2;PMS_P1;PMS_P2;Temp;Humidity;BMP_temperature;BMP_pressure;BME280_temperature;BME280_humidity;BME280_pressure;Samples;Min_cycle;Max_cycle;Signal;HPM_P1;HPM_P2
2021/06/12 00:02:22;;;;;;;21.07;15.93;;;19.70;99.90;;;;;;5050373;28;20385;-50
2021/06/12 00:04:47;;;;;;;17.63;15.00;;;19.70;99.90;;;;;;5051124;28;20409;-53
2021/06/12 00:07:13;;;;;;;17.58;14.98;;;19.60;99.90;;;;;;5050346;28;20406;-50
2021/06/12 00:09:39;;;;;;;18.00;15.18;;;19.40;99.90;;;;;;5051071;28;20487;-50
2021/06/12 00:12:05;;;;;;;18.73;14.52;;;19.30;99.90;;;;;;5049836;28;20985;-50
2021/06/12 00:14:31;;;;;;;18.80;14.82;;;19.30;99.90;;;;;;5051019;28;20875;-50
2021/06/12 00:16:56;;;;;;;17.80;15.17;;;19.40;99.90;;;;;;5050746;28;20381;-50
2021/06/12 00:19:22;;;;;;;20.63;15.20;;;19.40;99.90;;;;;;5050170;28;20385;-50
2021/06/12 00:21:48;;;;;;;18.95;15.80;;;19.40;99.90;;;;;;5050782;28;20382;-50
2021/06/12 00:24:13;;;;;;;18.55;15.50;;;19.30;99.90;;;;;;5050022;28;20404;-49
2021/06/12 00:26:39;;;;;;;19.17;14.57;;;19.20;99.90;;;;;;5050741;28;20410;-50
2021/06/12 00:29:05;;;;;;;19.85;15.80;;;19.10;99.90;;;;;;5050216;28;20393;-50
2021/06/12 00:31:31;;;;;;;18.85;15.40;;;19.10;99.90;;;;;;5050701;28;20443;-50
2021/06/12 00:33:57;;;;;;;22.08;15.55;;;19.10;99.90;;;;;;5050523;28;20392;-50
2021/06/12 00:36:24;;;;;;;20.23;16.30;;;19.10;99.90;;;;;;5049718;28;20389;-50
2021/06/12 00:38:51;;;;;;;20.75;15.65;;;18.90;99.90;;;;;;5050181;28;20882;-50
2021/06/12 00:41:18;;;;;;;17.80;14.80;;;18.70;99.90;;;;;;5049471;28;20739;-49
2021/06/12 00:43:44;;;;;;;19.38;15.15;;;18.70;99.90;;;;;;5050300;28;20385;-49
2021/06/12 00:46:10;;;;;;;18.90;15.37;;;18.70;99.90;;;;;;5049526;28;20378;-50
2021/06/12 00:48:37;;;;;;;19.63;16.10;;;18.80;99.90;;;;;;5050345;28;20413;-50
2021/06/12 00:51:04;;;;;;;19.13;15.40;;;18.80;99.90;;;;;;5049673;28;20422;-54
2021/06/12 00:53:37;;;;;;;19.73;16.50;;;18.90;99.90;;;;;;5050555;28;20378;-49
2021/06/12 00:56:15;;;;;;;18.77;15.82;;;18.80;99.90;;;;;;5049562;28;20378;-55
2021/06/12 00:58:42;;;;;;;19.83;15.93;;;18.80;99.90;;;;;;5049565;28;20462;-51
2021/06/12 01:01:13;;;;;;;18.60;16.60;;;18.90;99.90;;;;;;5048120;28;20785;-50
2021/06/12 01:03:40;;;;;;;22.17;16.48;;;19.00;99.90;;;;;;5049812;28;20432;-50
2021/06/12 01:06:09;;;;;;;19.77;15.35;;;19.10;99.90;;;;;;5049275;28;20384;-50
2021/06/12 01:08:36;;;;;;;19.60;16.70;;;19.10;99.90;;;;;;5050103;28;20409;-50
2021/06/12 01:11:03;;;;;;;21.00;16.10;;;19.00;99.90;;;;;;5049778;28;20377;-54
2021/06/12 01:13:56;;;;;;;19.38;16.42;;;18.90;99.90;;;;;;5049676;28;20386;-49
2021/06/12 01:16:43;;;;;;;19.83;16.10;;;18.80;99.90;;;;;;5049183;28;20444;-50
2021/06/12 01:19:46;;;;;;;21.52;17.02;;;18.70;99.90;;;;;;5048988;28;20374;-50
2021/06/12 01:22:46;;;;;;;23.10;17.23;;;18.40;99.90;;;;;;5048991;28;20882;-50
2021/06/12 01:25:31;;;;;;;22.60;17.40;;;18.30;99.90;;;;;;5035638;28;20386;-50
2021/06/12 01:28:15;;;;;;;21.20;17.38;;;18.40;99.90;;;;;;5049735;28;20487;-50
2021/06/12 01:30:43;;;;;;;23.57;16.33;;;18.50;99.90;;;;;;5049681;28;20448;-50
2021/06/12 01:33:12;;;;;;;19.95;17.17;;;18.60;99.90;;;;;;5048816;28;20385;-50
2021/06/12 01:35:40;;;;;;;19.37;15.70;;;18.60;99.90;;;;;;5049675;28;20859;-51
2021/06/12 01:38:10;;;;;;;20.27;17.33;;;18.50;99.90;;;;;;5049103;28;20388;-51
2021/06/12 01:40:40;;;;;;;18.38;15.10;;;18.60;99.90;;;;;;5049744;28;20384;-51
2021/06/12 01:43:09;;;;;;;19.17;16.58;;;18.50;99.90;;;;;;5048658;28;20381;-49
2021/06/12 01:45:35;;;;;;;20.05;16.83;;;18.60;99.90;;;;;;5049635;28;20923;-50
2021/06/12 01:48:02;;;;;;;19.85;16.08;;;18.50;99.90;;;;;;5049382;28;20516;-54
2021/06/12 01:50:28;;;;;;;21.17;17.60;;;18.50;99.90;;;;;;5049182;28;20384;-52
2021/06/12 01:52:55;;;;;;;20.45;17.27;;;18.50;99.90;;;;;;5049466;28;20791;-52
2021/06/12 01:55:28;;;;;;;21.23;16.20;;;18.60;99.90;;;;;;5048935;28;20441;-50
2021/06/12 01:57:54;;;;;;;21.20;17.55;;;18.60;99.90;;;;;;5049451;28;20413;-49
2021/06/12 02:00:20;;;;;;;20.50;16.50;;;18.60;99.90;;;;;;5048474;28;20425;-50
2021/06/12 02:02:47;;;;;;;21.88;18.02;;;18.70;99.90;;;;;;5049332;28;20393;-53
2021/06/12 02:05:16;;;;;;;21.00;17.60;;;18.70;99.90;;;;;;5048632;28;20805;-49
2021/06/12 02:07:43;;;;;;;20.88;17.30;;;18.70;99.90;;;;;;5047935;28;20834;-50
2021/06/12 02:10:12;;;;;;;21.48;17.10;;;18.60;99.90;;;;;;5048731;28;20420;-50
2021/06/12 02:12:38;;;;;;;20.50;16.60;;;18.50;99.90;;;;;;5051942;28;20867;-50
2021/06/12 02:15:10;;;;;;;21.23;18.63;;;18.50;99.90;;;;;;5052412;28;20381;-53
2021/06/12 02:17:38;;;;;;;20.80;17.10;;;18.50;99.90;;;;;;5052965;28;20469;-49
2021/06/12 02:20:08;;;;;;;22.92;17.30;;;18.50;99.90;;;;;;5052759;28;20847;-53
2021/06/12 02:22:37;;;;;;;21.50;18.45;;;18.50;99.90;;;;;;5053239;28;20473;-50
2021/06/12 02:25:07;;;;;;;24.60;18.80;;;18.30;99.90;;;;;;5052619;28;20386;-54
2021/06/12 02:27:34;;;;;;;21.83;17.70;;;18.30;99.90;;;;;;5052546;28;20504;-49
2021/06/12 02:30:00;;;;;;;22.38;17.77;;;18.20;99.90;;;;;;5052985;28;20431;-49
2021/06/12 02:32:27;;;;;;;23.75;18.17;;;18.10;99.90;;;;;;5051614;28;20760;-49
2021/06/12 02:34:53;;;;;;;25.40;19.60;;;17.90;99.90;;;;;;5052448;28;20489;-49
2021/06/12 02:37:19;;;;;;;26.10;20.50;;;17.80;99.90;;;;;;5051794;28;20480;-49
2021/06/12 02:39:44;;;;;;;22.80;19.10;;;17.60;99.90;;;;;;5052388;28;20367;-50
2021/06/12 02:42:10;;;;;;;24.20;18.83;;;17.70;99.90;;;;;;5051880;28;20903;-49
2021/06/12 02:44:36;;;;;;;22.20;18.30;;;17.80;99.90;;;;;;5052903;28;20456;-50
2021/06/12 02:47:05;;;;;;;25.00;19.47;;;17.80;99.90;;;;;;5052057;28;20913;-53
2021/06/12 02:49:36;;;;;;;23.42;18.88;;;17.80;99.90;;;;;;5052294;28;20414;-49
2021/06/12 02:52:05;;;;;;;24.08;18.73;;;17.80;99.90;;;;;;5052523;28;20366;-54
2021/06/12 02:54:32;;;;;;;22.90;20.13;;;17.70;99.90;;;;;;5052317;28;20450;-50
2021/06/12 02:56:59;;;;;;;22.35;18.35;;;17.60;99.90;;;;;;5052262;28;20397;-51
2021/06/12 02:59:28;;;;;;;20.88;18.08;;;17.60;99.90;;;;;;5051662;28;20423;-50
2021/06/12 03:01:54;;;;;;;21.05;17.40;;;17.60;99.90;;;;;;5052570;28;20378;-50
2021/06/12 03:04:21;;;;;;;21.70;17.58;;;17.70;99.90;;;;;;5050814;28;20907;-50
2021/06/12 03:06:49;;;;;;;20.97;17.23;;;17.60;99.90;;;;;;5051872;28;20409;-52
2021/06/12 03:09:21;;;;;;;19.75;16.75;;;17.60;99.90;;;;;;5051402;28;20381;-50
2021/06/12 03:11:49;;;;;;;19.80;17.70;;;17.60;99.90;;;;;;5052033;28;20519;-50
2021/06/12 03:14:16;;;;;;;21.58;17.20;;;17.70;99.90;;;;;;5050041;28;20435;-51
2021/06/12 03:16:43;;;;;;;19.90;17.00;;;17.70;99.90;;;;;;5052089;28;20389;-50
2021/06/12 03:19:11;;;;;;;20.45;17.75;;;17.60;99.90;;;;;;5051162;28;20469;-50
2021/06/12 03:21:38;;;;;;;20.60;16.55;;;17.60;99.90;;;;;;5051715;28;20874;-49
2021/06/12 03:24:05;;;;;;;19.77;17.20;;;17.60;99.90;;;;;;5050588;28;20369;-54
2021/06/12 03:26:33;;;;;;;20.83;17.23;;;17.50;99.90;;;;;;5051508;28;20386;-49
2021/06/12 03:28:59;;;;;;;20.35;17.90;;;17.50;99.90;;;;;;5051667;28;20385;-49
2021/06/12 03:31:25;;;;;;;23.35;18.73;;;17.50;99.90;;;;;;5050935;28;20374;-50
2021/06/12 03:33:51;;;;;;;22.02;18.02;;;17.50;99.90;;;;;;5051294;28;20492;-51
2021/06/12 03:36:18;;;;;;;22.10;17.63;;;17.60;99.90;;;;;;5050375;28;20378;-50
2021/06/12 03:38:44;;;;;;;21.45;18.52;;;17.60;99.90;;;;;;5051058;28;20808;-49
2021/06/12 03:41:10;;;;;;;22.93;18.40;;;17.70;99.90;;;;;;5050564;28;20465;-51
2021/06/12 03:43:37;;;;;;;22.63;18.45;;;17.60;99.90;;;;;;5051363;28;20559;-50
2021/06/12 03:46:04;;;;;;;22.55;18.55;;;17.50;99.90;;;;;;5051108;28;20527;-53
2021/06/12 03:48:30;;;;;;;21.08;18.20;;;17.40;99.90;;;;;;5050792;28;20883;-49
2021/06/12 03:50:58;;;;;;;24.40;19.30;;;17.40;99.90;;;;;;5051080;28;20904;-50
2021/06/12 03:53:30;;;;;;;23.23;19.60;;;17.40;99.90;;;;;;5049199;28;21051;-50
2021/06/12 03:55:57;;;;;;;22.08;18.30;;;17.40;99.90;;;;;;5051226;28;20392;-50
2021/06/12 03:58:23;;;;;;;21.80;18.20;;;17.30;99.90;;;;;;5048987;28;20647;-49
2021/06/12 04:00:49;;;;;;;22.95;18.58;;;17.40;99.90;;;;;;5051074;28;20871;-50
2021/06/12 04:03:14;;;;;;;23.10;18.63;;;17.40;99.90;;;;;;5049900;28;20377;-49
2021/06/12 04:05:40;;;;;;;21.38;18.60;;;17.40;99.90;;;;;;5050750;28;20446;-49
2021/06/12 04:08:05;;;;;;;21.40;18.17;;;17.40;99.90;;;;;;5050723;28;20910;-53
2021/06/12 04:10:31;;;;;;;21.43;17.20;;;17.40;99.90;;;;;;5050938;28;20392;-49
2021/06/12 04:12:57;;;;;;;22.27;18.35;;;17.40;99.90;;;;;;5051057;28;20743;-50
2021/06/12 04:15:22;;;;;;;21.95;17.40;;;17.40;99.90;;;;;;5049877;28;20393;-50
2021/06/12 04:17:51;;;;;;;21.17;18.13;;;17.60;99.90;;;;;;5050771;28;20378;-51
2021/06/12 04:20:16;;;;;;;22.42;17.25;;;17.60;99.90;;;;;;5048709;28;20397;-49
2021/06/12 04:22:42;;;;;;;19.90;17.10;;;17.80;99.90;;;;;;5050552;28;20393;-50
2021/06/12 04:25:08;;;;;;;22.53;18.33;;;18.00;99.90;;;;;;5050421;28;20392;-53
2021/06/12 04:27:34;;;;;;;20.30;16.90;;;18.20;99.90;;;;;;5050314;28;20413;-51
2021/06/12 04:30:01;;;;;;;19.60;17.30;;;18.40;99.90;;;;;;5050716;28;20808;-50
2021/06/12 04:32:26;;;;;;;22.75;17.50;;;18.40;99.90;;;;;;5050060;28;21009;-50
2021/06/12 04:34:52;;;;;;;19.30;17.20;;;18.40;99.90;;;;;;5050214;28;20429;-50
2021/06/12 04:37:18;;;;;;;22.03;18.30;;;18.50;99.90;;;;;;5049968;28;20806;-50
2021/06/12 04:39:43;;;;;;;20.20;17.70;;;18.40;99.90;;;;;;5050671;28;20381;-49
2021/06/12 04:42:09;;;;;;;21.70;17.80;;;18.30;99.90;;;;;;5049817;28;20468;-50
2021/06/12 04:44:35;;;;;;;20.33;17.40;;;18.40;99.90;;;;;;5050590;28;20776;-49
2021/06/12 04:47:02;;;;;;;22.20;17.20;;;18.50;99.90;;;;;;5049010;28;20485;-49
2021/06/12 04:49:27;;;;;;;18.42;16.40;;;18.60;99.90;;;;;;5049312;28;20393;-49
2021/06/12 04:51:53;;;;;;;20.52;16.83;;;18.80;99.90;;;;;;5050019;28;20381;-50
2021/06/12 04:54:19;;;;;;;17.95;15.68;;;19.20;99.90;;;;;;5049093;28;20381;-50
2021/06/12 04:56:44;;;;;;;18.80;16.60;;;19.70;99.90;;;;;;5049836;28;20470;-51
2021/06/12 04:59:10;;;;;;;20.43;16.90;;;20.20;99.90;;;;;;5049372;28;20434;-50
2021/06/12 05:01:36;;;;;;;19.50;16.80;;;21.00;99.90;;;;;;5050129;28;20373;-50
2021/06/12 05:04:02;;;;;;;17.77;15.00;;;22.00;99.90;;;;;;5049794;28;20568;-50
2021/06/12 05:06:27;;;;;;;17.27;15.00;;;22.70;99.90;;;;;;5049349;28;20705;-50
2021/06/12 05:08:53;;;;;;;17.43;14.70;;;23.20;99.90;;;;;;5049754;28;20418;-50
2021/06/12 05:11:19;;;;;;;18.25;16.27;;;23.20;99.90;;;;;;5048897;28;20382;-50
2021/06/12 05:13:45;;;;;;;19.08;14.85;;;23.00;99.90;;;;;;5050261;28;20393;-50
2021/06/12 05:16:10;;;;;;;21.15;15.80;;;23.50;99.90;;;;;;5048420;28;20472;-50
2021/06/12 05:18:40;;;;;;;17.30;15.17;;;23.90;99.90;;;;;;5049948;28;20543;-51
2021/06/12 05:21:10;;;;;;;17.55;15.30;;;23.70;99.90;;;;;;5049730;28;20382;-54
2021/06/12 05:23:36;;;;;;;17.55;15.40;;;24.10;99.90;;;;;;5049738;28;20922;-50
2021/06/12 05:26:05;;;;;;;17.40;15.50;;;24.00;99.90;;;;;;5049702;28;20567;-50
2021/06/12 05:28:31;;;;;;;19.65;16.10;;;23.60;99.90;;;;;;5048895;28;20436;-52
2021/06/12 05:30:57;;;;;;;20.63;16.83;;;23.20;99.90;;;;;;5049272;28;20747;-51
2021/06/12 05:33:23;;;;;;;18.88;16.88;;;22.70;99.90;;;;;;5048835;28;20390;-49
2021/06/12 05:35:50;;;;;;;21.20;17.03;;;22.40;99.90;;;;;;5049647;28;20784;-50
2021/06/12 05:38:17;;;;;;;18.83;16.83;;;22.20;99.90;;;;;;5048610;28;20443;-50
2021/06/12 05:40:43;;;;;;;17.92;15.30;;;22.30;99.90;;;;;;5049617;28;20488;-50
2021/06/12 05:43:09;;;;;;;17.57;15.67;;;22.70;99.90;;;;;;5048976;28;20971;-56
2021/06/12 05:45:34;;;;;;;18.33;15.45;;;23.30;99.90;;;;;;5047763;28;20468;-51
2021/06/12 05:48:00;;;;;;;17.23;15.43;;;24.00;99.90;;;;;;5048786;28;20814;-51
2021/06/12 05:50:26;;;;;;;18.88;14.70;;;24.70;99.90;;;;;;5051369;28;20956;-51
2021/06/12 05:52:51;;;;;;;18.85;14.48;;;24.70;99.90;;;;;;5047475;28;20879;-52
2021/06/12 05:55:17;;;;;;;15.77;14.07;;;24.80;99.90;;;;;;5052508;28;20385;-51
2021/06/12 05:57:43;;;;;;;16.17;13.27;;;25.40;99.90;;;;;;5052698;28;20811;-51
2021/06/12 06:00:10;;;;;;;16.40;13.02;;;25.80;99.90;;;;;;5050276;28;20873;-55
2021/06/12 06:02:35;;;;;;;14.32;12.82;;;26.30;99.90;;;;;;5050138;28;20464;-49
2021/06/12 06:05:01;;;;;;;16.10;12.40;;;27.30;99.90;;;;;;5052035;28;20484;-52
2021/06/12 06:07:27;;;;;;;13.55;12.10;;;28.00;99.90;;;;;;5051774;28;20601;-50
2021/06/12 06:09:52;;;;;;;15.10;13.13;;;28.90;99.90;;;;;;5050937;28;20685;-49
2021/06/12 06:12:18;;;;;;;16.37;14.00;;;29.70;99.90;;;;;;5050441;28;20779;-50
2021/06/12 06:14:44;;;;;;;16.27;13.50;;;29.40;99.90;;;;;;5053256;28;20381;-49
2021/06/12 06:17:09;;;;;;;14.27;12.77;;;28.80;99.90;;;;;;5054909;28;20402;-49
2021/06/12 06:19:35;;;;;;;15.30;13.10;;;28.50;99.90;;;;;;5071470;28;20387;-48
2021/06/12 06:22:00;;;;;;;16.95;13.35;;;28.10;99.90;;;;;;5052764;28;20385;-51
2021/06/12 06:24:26;;;;;;;14.70;12.48;;;28.20;99.90;;;;;;5064269;28;21270;-48
2021/06/12 06:26:52;;;;;;;14.57;12.52;;;28.40;99.90;;;;;;5061960;28;20466;-53
2021/06/12 06:29:18;;;;;;;14.70;12.70;;;29.70;99.60;;;;;;5053285;28;20385;-51
2021/06/12 06:31:45;;;;;;;17.02;12.88;;;30.30;98.70;;;;;;5050982;28;20441;-50
2021/06/12 06:34:11;;;;;;;13.18;11.65;;;30.80;97.00;;;;;;5051434;28;20732;-55
2021/06/12 06:36:38;;;;;;;15.85;12.45;;;31.30;95.90;;;;;;5051929;28;20405;-51
2021/06/12 06:39:04;;;;;;;16.17;12.40;;;31.40;94.60;;;;;;5051586;28;20469;-52
2021/06/12 06:41:30;;;;;;;13.30;11.90;;;31.20;95.70;;;;;;5051146;28;20439;-51
2021/06/12 06:43:56;;;;;;;15.80;11.95;;;31.30;94.50;;;;;;5051674;28;20389;-51
2021/06/12 06:46:22;;;;;;;14.00;11.47;;;31.70;94.10;;;;;;5048267;28;20388;-51
2021/06/12 06:48:48;;;;;;;13.60;11.83;;;31.90;94.10;;;;;;5051298;28;20410;-51
2021/06/12 06:51:13;;;;;;;12.03;10.63;;;31.80;93.10;;;;;;5050571;28;20392;-51
2021/06/12 06:53:39;;;;;;;14.90;10.97;;;31.80;92.70;;;;;;5051416;28;20991;-51
2021/06/12 06:56:06;;;;;;;11.90;10.40;;;31.50;92.70;;;;;;5048598;28;20389;-52
2021/06/12 06:58:32;;;;;;;12.27;10.93;;;31.60;92.10;;;;;;5049511;28;20444;-50
2021/06/12 07:00:58;;;;;;;12.90;10.17;;;31.80;92.20;;;;;;5050850;28;20451;-50
2021/06/12 07:03:23;;;;;;;11.43;9.70;;;31.20;92.20;;;;;;5049964;28;20810;-51
2021/06/12 07:05:50;;;;;;;11.80;10.10;;;31.50;92.20;;;;;;5051609;28;20389;-50
2021/06/12 07:08:16;;;;;;;11.52;9.77;;;31.70;91.60;;;;;;5053195;28;20409;-51
2021/06/12 07:10:41;;;;;;;11.57;9.95;;;31.90;90.80;;;;;;5072266;28;20383;-51
2021/06/12 07:13:08;;;;;;;11.88;10.00;;;32.50;90.20;;;;;;5071978;28;20375;-51
2021/06/12 07:15:33;;;;;;;10.45;9.13;;;31.80;89.10;;;;;;5071902;28;21118;-50
2021/06/12 07:17:59;;;;;;;11.50;9.00;;;33.20;84.70;;;;;;5071817;28;20375;-50
2021/06/12 07:20:25;;;;;;;11.00;9.20;;;33.80;83.20;;;;;;5070750;28;20462;-50
2021/06/12 07:22:51;;;;;;;11.82;8.90;;;33.70;83.30;;;;;;5071918;28;20842;-50
2021/06/12 07:25:17;;;;;;;9.93;8.80;;;34.30;79.10;;;;;;5070471;28;20945;-50
2021/06/12 07:27:43;;;;;;;10.35;8.38;;;34.30;77.40;;;;;;5071277;28;20407;-50
2021/06/12 07:30:09;;;;;;;11.35;8.48;;;34.50;76.20;;;;;;5071618;28;20364;-56
2021/06/12 07:32:35;;;;;;;10.73;8.10;;;34.30;75.40;;;;;;5072684;28;20383;-50
2021/06/12 07:35:01;;;;;;;10.53;8.50;;;33.70;76.60;;;;;;5071120;28;20408;-50
2021/06/12 07:37:26;;;;;;;11.15;8.20;;;33.30;77.60;;;;;;5070344;28;20457;-53
2021/06/12 07:39:52;;;;;;;10.88;8.52;;;33.30;78.00;;;;;;5071334;28;20383;-51
2021/06/12 07:42:18;;;;;;;14.70;9.10;;;33.70;78.50;;;;;;5070406;28;20723;-50
2021/06/12 07:44:44;;;;;;;9.73;8.30;;;33.70;76.70;;;;;;5071028;28;20783;-50
2021/06/12 07:47:10;;;;;;;9.77;8.20;;;32.60;79.40;;;;;;5070714;28;20399;-54
2021/06/12 07:49:36;;;;;;;10.60;8.50;;;31.90;81.30;;;;;;5070763;28;20379;-52
2021/06/12 07:52:01;;;;;;;10.57;8.93;;;31.40;83.50;;;;;;5070744;28;20458;-50
2021/06/12 07:54:27;;;;;;;11.20;10.10;;;30.70;87.30;;;;;;5070044;28;20368;-51
2021/06/12 07:56:53;;;;;;;12.00;10.52;;;30.20;90.60;;;;;;5071674;28;20842;-49
2021/06/12 07:59:19;;;;;;;12.95;11.43;;;30.40;90.60;;;;;;5070204;28;20376;-50
2021/06/12 08:01:45;;;;;;;12.02;10.30;;;30.90;90.80;;;;;;5054515;28;20386;-50
2021/06/12 08:04:11;;;;;;;12.27;9.50;;;31.90;90.40;;;;;;5050374;28;20405;-51
2021/06/12 08:06:37;;;;;;;11.23;9.50;;;32.50;88.50;;;;;;5051220;28;20374;-50
2021/06/12 08:09:03;;;;;;;13.67;9.90;;;33.50;85.10;;;;;;5049941;28;20381;-50
2021/06/12 08:11:29;;;;;;;11.90;9.25;;;33.70;82.40;;;;;;5050238;28;20647;-50
2021/06/12 08:13:54;;;;;;;11.02;8.90;;;33.80;83.30;;;;;;5050264;28;20400;-51
2021/06/12 08:16:20;;;;;;;11.20;9.02;;;35.60;77.00;;;;;;5049969;28;20457;-51
2021/06/12 08:18:46;;;;;;;11.40;9.20;;;35.90;73.80;;;;;;5050098;28;20392;-50
2021/06/12 08:21:12;;;;;;;10.20;8.53;;;35.10;74.00;;;;;;5050516;28;20847;-55
2021/06/12 08:23:38;;;;;;;10.67;7.60;;;33.80;76.80;;;;;;5051367;28;20439;-50
2021/06/12 08:26:04;;;;;;;9.68;7.93;;;33.60;78.20;;;;;;5050699;28;20378;-50
2021/06/12 08:28:30;;;;;;;10.43;8.00;;;32.70;80.80;;;;;;5050049;28;20903;-50
2021/06/12 08:30:57;;;;;;;10.70;7.50;;;31.50;85.20;;;;;;5050367;28;20409;-51
2021/06/12 08:33:24;;;;;;;10.88;7.78;;;31.60;88.20;;;;;;5049110;28;20404;-49
2021/06/12 08:35:49;;;;;;;9.93;7.63;;;32.80;83.70;;;;;;5050463;28;20369;-50
2021/06/12 08:38:15;;;;;;;11.32;7.15;;;32.30;84.40;;;;;;5049620;28;20465;-51
2021/06/12 08:40:41;;;;;;;10.30;6.72;;;32.50;86.80;;;;;;5049639;28;20807;-50
2021/06/12 08:43:07;;;;;;;7.53;5.40;;;33.10;85.20;;;;;;5050153;28;20412;-52
2021/06/12 08:45:33;;;;;;;9.98;4.90;;;33.80;82.70;;;;;;5049696;28;20361;-52
2021/06/12 08:48:01;;;;;;;7.50;4.80;;;34.10;81.20;;;;;;5050093;28;20405;-50
2021/06/12 08:50:28;;;;;;;7.75;4.50;;;32.70;81.50;;;;;;5049170;28;20383;-50
2021/06/12 08:52:56;;;;;;;9.02;5.97;;;31.50;85.50;;;;;;5048328;28;20377;-50
2021/06/12 08:55:23;;;;;;;9.40;4.50;;;30.70;89.30;;;;;;5049078;28;20384;-50
2021/06/12 08:57:49;;;;;;;7.90;4.72;;;30.30;90.90;;;;;;5050254;28;20381;-50
2021/06/12 09:00:16;;;;;;;9.73;5.40;;;30.10;91.20;;;;;;5048627;28;20378;-51
2021/06/12 09:03:04;;;;;;;7.63;5.18;;;30.50;92.00;;;;;;5049514;28;20401;-50
2021/06/12 09:05:54;;;;;;;8.48;5.10;;;31.40;91.60;;;;;;5062009;28;20779;-51
2021/06/12 09:08:25;;;;;;;8.40;4.50;;;31.70;90.40;;;;;;5056244;28;20414;-50
2021/06/12 09:10:58;;;;;;;8.00;4.50;;;32.30;90.20;;;;;;5068770;28;20433;-51
2021/06/12 09:13:39;;;;;;;12.40;4.70;;;33.90;84.50;;;;;;5068657;28;20390;-50
2021/06/12 09:16:08;;;;;;;8.30;4.65;;;33.70;81.60;;;;;;5070065;28;20391;-52
2021/06/12 09:18:40;;;;;;;9.02;4.90;;;33.00;84.20;;;;;;5052544;28;20528;-52
2021/06/12 09:21:21;;;;;;;7.90;4.72;;;32.60;85.10;;;;;;5048887;28;20401;-51
2021/06/12 09:23:47;;;;;;;8.88;4.97;;;32.00;86.40;;;;;;5048373;28;20380;-50
2021/06/12 09:26:13;;;;;;;7.55;4.50;;;32.50;87.30;;;;;;5049060;28;20397;-54
2021/06/12 09:28:50;;;;;;;10.35;4.80;;;33.30;84.70;;;;;;5048787;28;20449;-50
2021/06/12 09:31:18;;;;;;;9.38;5.32;;;33.40;83.00;;;;;;5048061;28;20421;-51
2021/06/12 09:33:44;;;;;;;7.70;4.70;;;32.70;82.80;;;;;;5048723;28;20489;-50
2021/06/12 09:36:10;;;;;;;8.07;5.07;;;32.70;84.70;;;;;;5049259;28;20476;-50
2021/06/12 09:38:36;;;;;;;7.90;5.23;;;32.90;83.30;;;;;;5048687;28;20416;-51
2021/06/12 09:41:28;;;;;;;11.68;6.22;;;32.60;82.00;;;;;;5049326;28;20422;-51
2021/06/12 09:43:54;;;;;;;8.65;5.60;;;31.50;86.20;;;;;;5043829;28;20916;-51
2021/06/12 09:46:34;;;;;;;7.18;5.13;;;31.60;88.00;;;;;;5047547;28;20413;-50
2021/06/12 09:49:00;;;;;;;10.50;5.57;;;31.20;87.20;;;;;;5051812;28;20500;-50
2021/06/12 09:51:26;;;;;;;7.60;5.63;;;31.50;87.20;;;;;;5057310;28;20415;-51
2021/06/12 09:53:55;;;;;;;9.90;5.68;;;31.80;86.50;;;;;;5053570;28;20390;-50
2021/06/12 09:56:21;;;;;;;8.65;5.55;;;32.00;87.70;;;;;;5048260;28;20914;-50
2021/06/12 09:58:47;;;;;;;10.07;5.53;;;31.70;89.10;;;;;;5048736;28;20428;-50
2021/06/12 10:01:15;;;;;;;10.13;5.88;;;31.10;88.10;;;;;;5048788;28;20492;-54
2021/06/12 10:03:41;;;;;;;10.18;6.10;;;31.30;89.10;;;;;;5051355;28;20498;-50
2021/06/12 10:06:17;;;;;;;9.02;5.88;;;32.20;87.70;;;;;;5049032;28;20385;-50
2021/06/12 10:08:49;;;;;;;9.40;5.55;;;33.20;85.60;;;;;;5052136;28;20508;-51
2021/06/12 10:11:16;;;;;;;11.40;5.85;;;33.80;82.40;;;;;;5050348;28;20432;-56
2021/06/12 10:13:46;;;;;;;10.00;6.90;;;35.00;77.80;;;;;;5048306;28;20451;-53
2021/06/12 10:16:14;;;;;;;8.75;5.70;;;35.00;75.60;;;;;;5059727;28;20478;-51
2021/06/12 10:18:42;;;;;;;8.90;5.80;;;34.30;78.70;;;;;;5058294;28;20400;-51
2021/06/12 10:21:12;;;;;;;9.43;5.50;;;33.20;79.40;;;;;;5048770;28;20389;-53
2021/06/12 10:23:39;;;;;;;9.90;5.40;;;32.60;82.80;;;;;;5048315;28;20389;-51
2021/06/12 10:26:06;;;;;;;9.52;6.15;;;32.30;83.60;;;;;;5065631;28;20821;-53
2021/06/12 10:28:32;;;;;;;8.60;6.23;;;32.00;83.40;;;;;;5068232;28;20415;-52
2021/06/12 10:31:34;;;;;;;7.70;4.93;;;31.60;85.20;;;;;;5051063;28;20388;-53
2021/06/12 10:34:00;;;;;;;7.45;5.90;;;31.30;86.30;;;;;;5069718;28;20979;-52
2021/06/12 10:36:29;;;;;;;8.60;5.78;;;30.60;85.90;;;;;;5055604;28;20386;-52
2021/06/12 10:38:56;;;;;;;9.60;5.20;;;30.80;89.10;;;;;;5051998;28;20473;-52
2021/06/12 10:41:27;;;;;;;11.35;5.10;;;30.70;88.40;;;;;;5051008;28;20515;-51
2021/06/12 10:43:57;;;;;;;8.65;4.95;;;30.80;88.70;;;;;;5052143;28;20428;-51
2021/06/12 10:46:25;;;;;;;8.32;4.90;;;30.70;87.80;;;;;;5050685;28;20389;-51
2021/06/12 10:48:59;;;;;;;8.75;4.63;;;30.10;90.30;;;;;;5048961;28;20405;-51
2021/06/12 10:51:25;;;;;;;8.90;5.10;;;30.00;90.30;;;;;;5055276;28;20406;-53
2021/06/12 10:54:09;;;;;;;7.83;4.70;;;30.20;91.40;;;;;;5051650;28;20400;-52
2021/06/12 10:56:43;;;;;;;9.07;4.70;;;30.50;88.30;;;;;;5049851;28;20390;-51
2021/06/12 10:59:12;;;;;;;8.10;4.47;;;30.90;88.30;;;;;;5050697;28;20412;-52
2021/06/12 11:02:26;;;;;;;9.55;5.20;;;31.00;87.20;;;;;;5055664;28;21193;-52
2021/06/12 11:05:01;;;;;;;7.78;5.13;;;31.10;88.40;;;;;;5057973;28;20919;-52
2021/06/12 11:07:37;;;;;;;10.48;5.00;;;30.00;90.70;;;;;;5085702;28;20424;-52
2021/06/12 11:10:12;;;;;;;7.70;4.90;;;29.70;91.70;;;;;;5060461;28;20801;-51
2021/06/12 11:12:45;;;;;;;9.77;5.18;;;30.00;91.00;;;;;;5049281;28;20398;-52
2021/06/12 11:15:32;;;;;;;7.90;4.63;;;29.70;90.40;;;;;;5047806;28;20385;-53
2021/06/12 11:18:13;;;;;;;8.80;4.50;;;29.50;91.10;;;;;;5049741;28;20451;-52
2021/06/12 11:20:45;;;;;;;7.68;4.65;;;30.80;91.40;;;;;;5048913;28;20402;-52
2021/06/12 11:23:16;;;;;;;7.83;4.80;;;30.00;90.90;;;;;;5050508;28;20381;-52
2021/06/12 11:25:45;;;;;;;7.55;5.00;;;30.30;90.10;;;;;;5051342;28;20386;-52
2021/06/12 11:28:17;;;;;;;15.07;6.30;;;30.40;90.10;;;;;;5051015;28;20441;-52
2021/06/12 11:30:42;;;;;;;8.45;4.70;;;29.80;91.40;;;;;;5050347;28;20397;-52
2021/06/12 11:33:12;;;;;;;9.75;4.50;;;29.40;91.40;;;;;;5051051;28;20389;-49
2021/06/12 11:35:53;;;;;;;8.73;4.50;;;29.60;89.90;;;;;;5050287;28;20447;-49
2021/06/12 11:38:33;;;;;;;7.07;4.13;;;29.40;90.90;;;;;;5042003;28;20440;-50
2021/06/12 11:41:08;;;;;;;10.30;4.60;;;29.30;91.40;;;;;;5050515;28;20392;-49
2021/06/12 11:43:45;;;;;;;7.50;4.60;;;29.40;91.90;;;;;;5050343;28;20471;-49
2021/06/12 11:46:14;;;;;;;7.53;4.70;;;29.60;91.80;;;;;;5050121;28;20380;-52
2021/06/12 11:48:51;;;;;;;7.30;4.07;;;29.80;91.70;;;;;;5065906;28;20417;-52
2021/06/12 11:51:31;;;;;;;9.03;3.60;;;29.50;90.50;;;;;;5051138;28;20385;-57
2021/06/12 11:54:32;;;;;;;10.98;4.25;;;29.60;90.10;;;;;;5052023;28;20395;-53
2021/06/12 11:57:02;;;;;;;14.40;6.10;;;29.60;90.60;;;;;;5062042;28;20470;-50
2021/06/12 11:59:30;;;;;;;8.65;3.88;;;29.80;90.00;;;;;;5064915;28;20539;-51
2021/06/12 12:02:06;;;;;;;7.20;3.80;;;29.40;89.80;;;;;;5050249;28;20382;-51
2021/06/12 12:04:39;;;;;;;9.23;3.70;;;29.10;90.20;;;;;;5049778;28;20536;-52
2021/06/12 12:07:07;;;;;;;7.10;3.25;;;29.00;90.20;;;;;;5050630;28;20480;-53
2021/06/12 12:09:44;;;;;;;8.60;3.50;;;28.90;90.90;;;;;;5050010;28;20381;-50
2021/06/12 12:12:14;;;;;;;6.20;3.00;;;28.80;91.10;;;;;;5050306;28;20465;-51
2021/06/12 12:14:42;;;;;;;5.90;3.07;;;28.90;87.10;;;;;;5049722;28;20426;-50
2021/06/12 12:17:20;;;;;;;9.05;3.67;;;29.00;86.40;;;;;;5050119;28;20397;-50
2021/06/12 12:19:59;;;;;;;8.30;3.80;;;29.20;87.00;;;;;;5051898;28;20392;-53
2021/06/12 12:22:37;;;;;;;6.20;3.60;;;29.10;86.80;;;;;;5055474;28;20453;-51
2021/06/12 12:25:09;;;;;;;6.18;3.80;;;28.50;88.00;;;;;;5056059;28;20865;-50
2021/06/12 12:27:35;;;;;;;7.70;3.50;;;28.40;90.30;;;;;;5050030;28;20412;-49
2021/06/12 12:30:01;;;;;;;6.85;3.22;;;28.60;88.10;;;;;;5050047;28;20381;-49
2021/06/12 12:32:27;;;;;;;7.88;4.18;;;28.20;86.40;;;;;;5058693;28;20396;-49
2021/06/12 12:34:53;;;;;;;6.93;4.18;;;29.10;88.20;;;;;;5068072;28;20878;-49
2021/06/12 12:37:21;;;;;;;6.93;4.00;;;29.20;89.80;;;;;;5065360;28;20431;-53
2021/06/12 12:39:49;;;;;;;8.67;3.80;;;29.00;90.40;;;;;;5069474;28;20881;-49
2021/06/12 12:42:18;;;;;;;6.00;3.92;;;29.10;90.60;;;;;;5068206;28;20392;-54